createdAt,value
2019-05-25T00:01:57.717Z,14.59
2019-05-25T00:04:24.464Z,14.58
2019-05-25T00:06:51.544Z,14.54
2019-05-25T00:09:18.204Z,14.52
2019-05-25T00:11:45.225Z,14.48
2019-05-25T00:14:11.771Z,14.46
2019-05-25T00:16:38.705Z,14.43
2019-05-25T00:19:05.848Z,14.40
2019-05-25T00:21:32.373Z,14.38
2019-05-25T00:24:11.117Z,14.36
2019-05-25T00:26:27.612Z,14.35
2019-05-25T00:28:54.508Z,14.34
2019-05-25T00:31:21.251Z,14.34
2019-05-25T00:33:47.855Z,14.34
2019-05-25T00:36:14.491Z,14.33
2019-05-25T00:38:41.150Z,14.33
2019-05-25T00:41:08.127Z,14.31
2019-05-25T00:43:34.660Z,14.30
2019-05-25T00:46:01.325Z,14.30
2019-05-25T00:48:27.993Z,14.29
2019-05-25T00:50:54.798Z,14.28
2019-05-25T00:53:21.421Z,14.28
2019-05-25T00:55:48.195Z,14.28
2019-05-25T00:58:14.891Z,14.26
2019-05-25T01:00:41.564Z,14.26
2019-05-25T01:03:08.388Z,14.25
2019-05-25T01:05:35.338Z,14.26
2019-05-25T01:08:02.023Z,14.25
2019-05-25T01:10:28.768Z,14.26
2019-05-25T01:12:55.329Z,14.25
2019-05-25T01:15:22.791Z,14.24
2019-05-25T01:17:49.345Z,14.23
2019-05-25T01:20:16.572Z,14.23
2019-05-25T01:22:43.343Z,14.23
2019-05-25T01:25:10.359Z,14.21
2019-05-25T01:27:37.678Z,14.20
2019-05-25T01:30:05.236Z,14.19
2019-05-25T01:32:31.794Z,14.18
2019-05-25T01:34:58.564Z,14.19
2019-05-25T01:37:25.095Z,14.17
2019-05-25T01:39:51.769Z,14.18
2019-05-25T01:42:18.410Z,14.17
2019-05-25T01:44:45.046Z,14.16
2019-05-25T01:47:11.708Z,14.15
2019-05-25T01:49:38.381Z,14.13
2019-05-25T01:52:05.275Z,14.12
2019-05-25T01:54:31.928Z,14.09
2019-05-25T01:56:58.851Z,14.08
2019-05-25T01:59:25.934Z,14.07
2019-05-25T02:01:52.565Z,14.05
2019-05-25T02:04:19.323Z,14.01
2019-05-25T02:06:45.859Z,13.99
2019-05-25T02:09:12.614Z,13.97
2019-05-25T02:11:39.355Z,13.94
2019-05-25T02:14:06.093Z,13.91
2019-05-25T02:16:32.754Z,13.87
2019-05-25T02:18:59.294Z,13.82
2019-05-25T02:21:25.911Z,13.80
2019-05-25T02:23:52.587Z,13.76
2019-05-25T02:26:19.377Z,13.71
2019-05-25T02:28:46.014Z,13.68
2019-05-25T02:31:12.756Z,13.65
2019-05-25T02:33:39.415Z,13.61
2019-05-25T02:36:06.070Z,13.56
2019-05-25T02:38:32.736Z,13.53
2019-05-25T02:40:59.684Z,13.48
2019-05-25T02:43:26.450Z,13.44
2019-05-25T02:45:53.084Z,13.40
2019-05-25T02:48:19.841Z,13.36
2019-05-25T02:50:46.673Z,13.31
2019-05-25T02:53:13.606Z,13.28
2019-05-25T02:55:40.614Z,13.24
2019-05-25T02:58:07.183Z,13.22
2019-05-25T03:00:34.352Z,13.17
2019-05-25T03:03:01.683Z,13.13
2019-05-25T03:05:31.280Z,13.09
2019-05-25T03:07:58.842Z,13.05
2019-05-25T03:10:25.837Z,13.01
2019-05-25T03:12:52.493Z,12.97
2019-05-25T03:15:19.248Z,12.94
2019-05-25T03:17:45.892Z,12.90
2019-05-25T03:20:12.758Z,12.87
2019-05-25T03:22:39.632Z,12.82
2019-05-25T03:25:06.746Z,12.81
2019-05-25T03:27:33.373Z,12.79
2019-05-25T03:29:59.979Z,12.76
2019-05-25T03:32:26.621Z,12.73
2019-05-25T03:34:53.847Z,12.72
2019-05-25T03:37:20.747Z,12.71
2019-05-25T03:39:47.846Z,12.69
2019-05-25T03:42:14.510Z,12.67
2019-05-25T03:44:41.044Z,12.66
2019-05-25T03:47:07.785Z,12.65
2019-05-25T03:49:34.438Z,12.65
2019-05-25T03:52:01.285Z,12.64
2019-05-25T03:54:27.956Z,12.62
2019-05-25T03:56:54.999Z,12.61
2019-05-25T03:59:21.744Z,12.59
2019-05-25T04:01:48.403Z,12.59
2019-05-25T04:04:15.179Z,12.60
2019-05-25T04:06:41.838Z,12.58
2019-05-25T04:09:08.745Z,12.58
2019-05-25T04:11:35.499Z,12.59
2019-05-25T04:14:02.248Z,12.60
2019-05-25T04:16:28.807Z,12.60
2019-05-25T04:18:55.822Z,12.62
2019-05-25T04:21:22.752Z,12.63
2019-05-25T04:23:49.661Z,12.65
2019-05-25T04:26:22.431Z,12.66
2019-05-25T04:28:46.164Z,12.68
2019-05-25T04:31:13.101Z,12.69
2019-05-25T04:33:39.785Z,12.71
2019-05-25T04:36:06.630Z,12.73
2019-05-25T04:38:33.283Z,12.74
2019-05-25T04:40:59.962Z,12.75
2019-05-25T04:43:26.647Z,12.78
2019-05-25T04:45:53.404Z,12.78
2019-05-25T04:48:20.104Z,12.79
2019-05-25T04:50:46.774Z,12.81
2019-05-25T04:53:13.587Z,12.82
2019-05-25T04:55:40.248Z,12.84
2019-05-25T04:58:07.088Z,12.87
2019-05-25T05:00:33.741Z,12.88
2019-05-25T05:03:00.443Z,12.92
2019-05-25T05:05:27.092Z,12.94
2019-05-25T05:07:53.855Z,12.98
2019-05-25T05:10:20.882Z,13.03
2019-05-25T05:12:47.564Z,13.09
2019-05-25T05:15:14.296Z,13.15
2019-05-25T05:17:41.091Z,13.22
2019-05-25T05:20:08.339Z,13.30
2019-05-25T05:22:35.518Z,13.37
2019-05-25T05:25:02.545Z,13.45
2019-05-25T05:27:29.495Z,13.52
2019-05-25T05:29:56.293Z,13.59
2019-05-25T05:32:27.572Z,13.68
2019-05-25T05:34:52.708Z,13.75
2019-05-25T05:37:19.612Z,13.80
2019-05-25T05:39:46.930Z,13.85
2019-05-25T05:42:13.912Z,13.90
2019-05-25T05:44:40.818Z,13.95
2019-05-25T05:47:10.374Z,13.97
2019-05-25T05:49:36.808Z,14.00
2019-05-25T05:52:03.645Z,14.04
2019-05-25T05:54:30.952Z,14.06
2019-05-25T05:57:11.185Z,14.07
2019-05-25T05:59:27.560Z,14.09
2019-05-25T06:01:54.340Z,14.11
2019-05-25T06:04:21.231Z,14.13
2019-05-25T06:06:47.924Z,14.18
2019-05-25T06:09:14.627Z,14.20
2019-05-25T06:11:41.329Z,14.26
2019-05-25T06:14:08.209Z,14.35
2019-05-25T06:16:34.914Z,14.43
2019-05-25T06:19:01.721Z,14.55
2019-05-25T06:21:28.494Z,14.65
2019-05-25T06:23:55.697Z,14.75
2019-05-25T06:26:22.560Z,14.80
2019-05-25T06:28:49.241Z,14.87
2019-05-25T06:31:16.125Z,14.93
2019-05-25T06:33:42.728Z,15.00
2019-05-25T06:36:09.368Z,15.07
2019-05-25T06:38:35.940Z,15.13
2019-05-25T06:41:04.322Z,15.18
2019-05-25T06:43:32.144Z,15.23
2019-05-25T06:45:58.991Z,15.27
2019-05-25T06:48:25.681Z,15.34
2019-05-25T06:50:52.586Z,15.41
2019-05-25T06:53:19.247Z,15.50
2019-05-25T06:55:46.049Z,15.59
2019-05-25T06:58:15.912Z,15.71
2019-05-25T07:00:43.228Z,15.85
2019-05-25T07:03:10.015Z,16.05
2019-05-25T07:05:36.807Z,16.20
2019-05-25T07:08:04.049Z,16.35
2019-05-25T07:10:30.853Z,16.48
2019-05-25T07:12:57.679Z,16.61
2019-05-25T07:15:24.433Z,16.76
2019-05-25T07:17:51.126Z,16.94
2019-05-25T07:20:17.889Z,17.18
2019-05-25T07:22:44.507Z,17.36
2019-05-25T07:25:13.077Z,17.51
2019-05-25T07:27:39.613Z,17.68
2019-05-25T07:30:07.154Z,17.94
2019-05-25T07:32:34.441Z,18.08
2019-05-25T07:35:01.104Z,18.32
2019-05-25T07:37:27.765Z,18.53
2019-05-25T07:39:54.442Z,18.73
2019-05-25T07:42:21.097Z,18.85
2019-05-25T07:44:47.951Z,19.02
2019-05-25T07:47:14.702Z,19.14
2019-05-25T07:49:41.505Z,19.25
2019-05-25T07:52:08.037Z,19.32
2019-05-25T07:54:34.787Z,19.39
2019-05-25T07:57:01.464Z,19.50
2019-05-25T07:59:28.283Z,19.59
2019-05-25T08:01:55.164Z,19.62
2019-05-25T08:04:21.840Z,19.71
2019-05-25T08:06:48.577Z,19.78
2019-05-25T08:09:15.436Z,19.83
2019-05-25T08:11:42.387Z,19.85
2019-05-25T08:14:09.111Z,19.94
2019-05-25T08:16:35.836Z,19.99
2019-05-25T08:19:02.693Z,20.05
2019-05-25T08:21:29.443Z,20.08
2019-05-25T08:23:56.184Z,20.08
2019-05-25T08:26:22.999Z,20.07
2019-05-25T08:28:49.910Z,20.05
2019-05-25T08:31:17.266Z,20.11
2019-05-25T08:33:44.001Z,20.23
2019-05-25T08:36:10.725Z,20.41
2019-05-25T08:38:37.580Z,20.65
2019-05-25T08:41:04.261Z,20.88
2019-05-25T08:43:31.027Z,20.94
2019-05-25T08:45:57.798Z,21.25
2019-05-25T08:48:24.640Z,21.37
2019-05-25T08:50:51.341Z,21.55
2019-05-25T08:53:22.825Z,21.76
2019-05-25T08:55:46.827Z,21.96
2019-05-25T08:58:13.607Z,22.16
2019-05-25T09:00:40.528Z,22.32
2019-05-25T09:03:07.252Z,22.47
2019-05-25T09:05:34.035Z,22.57
2019-05-25T09:08:00.999Z,22.68
2019-05-25T09:10:27.646Z,22.87
2019-05-25T09:12:54.475Z,22.98
2019-05-25T09:15:21.139Z,22.85
2019-05-25T09:17:47.747Z,22.79
2019-05-25T09:20:14.468Z,22.77
2019-05-25T09:22:41.254Z,22.68
2019-05-25T09:25:08.453Z,22.62
2019-05-25T09:27:35.296Z,22.60
2019-05-25T09:30:02.116Z,22.62
2019-05-25T09:32:28.909Z,22.58
2019-05-25T09:34:55.463Z,22.48
2019-05-25T09:37:22.269Z,22.57
2019-05-25T09:39:48.964Z,22.50
2019-05-25T09:42:15.977Z,22.51
2019-05-25T09:44:42.627Z,22.52
2019-05-25T09:47:09.274Z,22.51
2019-05-25T09:49:35.984Z,22.48
2019-05-25T09:52:02.797Z,22.46
2019-05-25T09:54:29.720Z,22.38
2019-05-25T09:56:56.408Z,22.35
2019-05-25T09:59:23.288Z,22.33
2019-05-25T10:01:50.134Z,22.33
2019-05-25T10:04:17.013Z,22.36
2019-05-25T10:06:43.986Z,22.43
2019-05-25T10:09:10.645Z,22.50
2019-05-25T10:11:37.326Z,22.57
2019-05-25T10:14:04.983Z,22.62
2019-05-25T10:16:31.805Z,22.64
2019-05-25T10:18:58.804Z,22.65
2019-05-25T10:21:25.600Z,22.68
2019-05-25T10:23:52.306Z,22.76
2019-05-25T10:26:22.896Z,22.80
2019-05-25T10:28:47.872Z,22.86
2019-05-25T10:31:14.601Z,22.87
2019-05-25T10:33:41.327Z,22.83
2019-05-25T10:36:08.147Z,22.76
2019-05-25T10:38:34.841Z,22.68
2019-05-25T10:41:01.822Z,22.60
2019-05-25T10:43:29.273Z,22.58
2019-05-25T10:45:56.603Z,22.55
2019-05-25T10:48:23.292Z,22.52
2019-05-25T10:50:50.417Z,22.50
2019-05-25T10:53:17.213Z,22.48
2019-05-25T10:55:44.170Z,22.47
2019-05-25T10:58:11.157Z,22.44
2019-05-25T11:00:39.067Z,22.48
2019-05-25T11:03:05.763Z,22.52
2019-05-25T11:05:32.833Z,22.55
2019-05-25T11:07:59.558Z,22.56
2019-05-25T11:10:26.472Z,22.55
2019-05-25T11:12:53.290Z,22.53
2019-05-25T11:15:20.101Z,22.54
2019-05-25T11:17:46.929Z,22.56
2019-05-25T11:20:14.509Z,22.52
2019-05-25T11:22:41.154Z,22.48
2019-05-25T11:25:10.338Z,22.48
2019-05-25T11:27:37.240Z,22.48
2019-05-25T11:30:09.459Z,22.48
2019-05-25T11:32:33.877Z,22.45
2019-05-25T11:35:00.592Z,22.46
2019-05-25T11:37:27.257Z,22.45
2019-05-25T11:39:54.023Z,22.45
2019-05-25T11:42:20.746Z,22.44
2019-05-25T11:44:47.588Z,22.41
2019-05-25T11:47:14.330Z,22.38
2019-05-25T11:49:41.071Z,22.31
2019-05-25T11:52:07.900Z,22.26
2019-05-25T11:54:34.570Z,22.25
2019-05-25T11:57:01.302Z,22.23
2019-05-25T11:59:27.985Z,22.22
2019-05-25T12:01:54.718Z,22.30
2019-05-25T12:04:21.605Z,22.43
2019-05-25T12:06:48.273Z,22.53
2019-05-25T12:09:15.484Z,22.61
2019-05-25T12:11:42.148Z,22.71
2019-05-25T12:14:08.901Z,22.74
2019-05-25T12:16:35.579Z,22.74
2019-05-25T12:19:02.336Z,22.74
2019-05-25T12:21:29.201Z,22.73
2019-05-25T12:23:55.996Z,22.71
2019-05-25T12:26:22.819Z,22.71
2019-05-25T12:28:49.471Z,22.68
2019-05-25T12:31:16.197Z,22.67
2019-05-25T12:33:42.927Z,22.65
2019-05-25T12:36:10.095Z,22.62
2019-05-25T12:38:36.803Z,22.61
2019-05-25T12:41:05.770Z,22.64
2019-05-25T12:43:32.494Z,22.63
2019-05-25T12:45:59.310Z,22.64
2019-05-25T12:48:25.959Z,22.65
2019-05-25T12:50:52.998Z,22.66
2019-05-25T12:53:19.758Z,22.68
2019-05-25T12:55:46.680Z,22.67
2019-05-25T12:58:13.536Z,22.71
2019-05-25T13:00:53.459Z,22.68
2019-05-25T13:03:10.885Z,22.68
2019-05-25T13:05:37.403Z,22.69
2019-05-25T13:08:05.431Z,22.73
2019-05-25T13:10:32.165Z,22.82
2019-05-25T13:13:01.912Z,22.89
2019-05-25T13:15:27.464Z,22.97
2019-05-25T13:17:54.744Z,23.09
2019-05-25T13:20:22.609Z,23.13
2019-05-25T13:22:49.538Z,23.08
2019-05-25T13:25:16.881Z,23.07
2019-05-25T13:27:43.751Z,23.04
2019-05-25T13:30:10.591Z,22.97
2019-05-25T13:32:37.773Z,22.98
2019-05-25T13:35:05.055Z,22.99
2019-05-25T13:37:31.957Z,23.00
2019-05-25T13:39:58.627Z,22.96
2019-05-25T13:42:25.369Z,22.95
2019-05-25T13:44:52.396Z,22.90
2019-05-25T13:47:19.152Z,22.86
2019-05-25T13:49:45.837Z,22.85
2019-05-25T13:52:12.557Z,22.82
2019-05-25T13:54:39.741Z,22.79
2019-05-25T13:57:06.540Z,22.81
2019-05-25T13:59:33.289Z,22.81
2019-05-25T14:02:00.212Z,22.97
2019-05-25T14:04:26.896Z,23.26
2019-05-25T14:06:53.679Z,23.50
2019-05-25T14:09:20.397Z,23.56
2019-05-25T14:11:47.114Z,23.59
2019-05-25T14:14:14.183Z,23.55
2019-05-25T14:16:41.069Z,23.47
2019-05-25T14:19:07.974Z,23.33
2019-05-25T14:21:34.720Z,23.27
2019-05-25T14:24:01.974Z,23.21
2019-05-25T14:26:28.765Z,23.13
2019-05-25T14:28:55.582Z,23.07
2019-05-25T14:31:22.466Z,23.01
2019-05-25T14:33:49.221Z,23.25
2019-05-25T14:36:15.893Z,23.71
2019-05-25T14:38:42.648Z,24.13
2019-05-25T14:41:14.055Z,24.20
2019-05-25T14:43:40.878Z,24.28
2019-05-25T14:46:07.724Z,24.32
2019-05-25T14:48:34.593Z,24.24
2019-05-25T14:51:01.635Z,24.08
2019-05-25T14:53:28.463Z,23.81
2019-05-25T14:55:55.111Z,23.53
2019-05-25T14:58:21.868Z,23.25
2019-05-25T15:00:50.976Z,23.00
2019-05-25T15:03:18.010Z,22.78
2019-05-25T15:05:44.809Z,22.58
2019-05-25T15:08:11.628Z,22.38
2019-05-25T15:10:38.557Z,22.18
2019-05-25T15:13:05.500Z,22.13
2019-05-25T15:15:32.288Z,22.20
2019-05-25T15:17:59.098Z,22.44
2019-05-25T15:20:26.077Z,22.71
2019-05-25T15:22:52.755Z,22.91
2019-05-25T15:25:19.395Z,23.01
2019-05-25T15:27:46.302Z,23.13
2019-05-25T15:30:13.484Z,23.17
2019-05-25T15:32:40.469Z,23.10
2019-05-25T15:35:07.232Z,23.08
2019-05-25T15:37:33.932Z,23.01
2019-05-25T15:40:00.707Z,22.96
2019-05-25T15:42:28.697Z,22.95
2019-05-25T15:44:56.464Z,23.03
2019-05-25T15:47:23.611Z,23.10
2019-05-25T15:49:50.528Z,23.19
2019-05-25T15:52:17.377Z,23.26
2019-05-25T15:54:44.290Z,23.32
2019-05-25T15:57:11.220Z,23.42
2019-05-25T15:59:38.056Z,23.48
2019-05-25T16:02:05.246Z,23.48
2019-05-25T16:04:32.133Z,23.48
2019-05-25T16:06:58.814Z,23.46
2019-05-25T16:09:25.504Z,23.44
2019-05-25T16:11:52.454Z,23.37
2019-05-25T16:14:19.604Z,23.25
2019-05-25T16:16:46.349Z,23.15
2019-05-25T16:19:13.480Z,23.01
2019-05-25T16:21:40.284Z,22.89
2019-05-25T16:24:08.185Z,22.80
2019-05-25T16:26:45.360Z,22.76
2019-05-25T16:29:03.629Z,22.72
2019-05-25T16:31:30.601Z,22.71
2019-05-25T16:33:57.550Z,22.71
2019-05-25T16:36:24.207Z,22.71
2019-05-25T16:38:51.060Z,22.63
2019-05-25T16:41:17.801Z,22.55
2019-05-25T16:43:44.849Z,22.44
2019-05-25T16:46:11.765Z,22.33
2019-05-25T16:48:38.434Z,22.25
2019-05-25T16:51:05.380Z,22.19
2019-05-25T16:53:32.157Z,22.13
2019-05-25T16:55:58.967Z,22.05
2019-05-25T16:58:25.723Z,21.98
2019-05-25T17:00:52.272Z,21.93
2019-05-25T17:03:28.254Z,21.90
2019-05-25T17:05:47.683Z,21.88
2019-05-25T17:08:14.460Z,21.80
2019-05-25T17:10:41.373Z,21.76
2019-05-25T17:13:08.016Z,21.68
2019-05-25T17:15:34.786Z,21.58
2019-05-25T17:18:04.602Z,21.53
2019-05-25T17:20:30.120Z,21.39
2019-05-25T17:22:56.757Z,21.34
2019-05-25T17:25:23.438Z,21.28
2019-05-25T17:27:50.057Z,21.22
2019-05-25T17:30:25.392Z,21.15
2019-05-25T17:32:52.130Z,21.09
2019-05-25T17:35:18.900Z,21.01
2019-05-25T17:37:45.726Z,20.93
2019-05-25T17:40:12.505Z,20.88
2019-05-25T17:42:39.306Z,20.83
2019-05-25T17:45:06.376Z,20.76
2019-05-25T17:47:33.160Z,20.67
2019-05-25T17:50:00.153Z,20.58
2019-05-25T17:52:26.831Z,20.52
2019-05-25T17:54:53.629Z,20.46
2019-05-25T17:57:20.400Z,20.40
2019-05-25T17:59:47.076Z,20.37
2019-05-25T18:02:13.952Z,20.32
2019-05-25T18:04:40.509Z,20.30
2019-05-25T18:07:07.242Z,20.24
2019-05-25T18:09:33.995Z,20.19
2019-05-25T18:12:00.657Z,20.13
2019-05-25T18:14:27.357Z,20.10
2019-05-25T18:16:54.015Z,20.05
2019-05-25T18:19:20.758Z,19.99
2019-05-25T18:21:47.428Z,19.94
2019-05-25T18:24:14.387Z,19.90
2019-05-25T18:26:41.373Z,19.85
2019-05-25T18:29:08.278Z,19.79
2019-05-25T18:31:35.073Z,19.77
2019-05-25T18:34:01.810Z,19.73
2019-05-25T18:36:28.616Z,19.68
2019-05-25T18:38:55.186Z,19.64
2019-05-25T18:41:22.121Z,19.59
2019-05-25T18:43:49.010Z,19.52
2019-05-25T18:46:15.708Z,19.48
2019-05-25T18:48:42.645Z,19.44
2019-05-25T18:51:09.442Z,19.38
2019-05-25T18:53:36.144Z,19.31
2019-05-25T18:56:02.934Z,19.25
2019-05-25T18:58:29.719Z,19.20
2019-05-25T19:00:56.528Z,19.15
2019-05-25T19:03:23.255Z,19.10
2019-05-25T19:05:50.434Z,19.06
2019-05-25T19:08:17.259Z,19.01
2019-05-25T19:10:45.928Z,18.95
2019-05-25T19:13:12.961Z,18.90
2019-05-25T19:15:39.772Z,18.84
2019-05-25T19:18:06.768Z,18.80
2019-05-25T19:20:33.500Z,18.74
2019-05-25T19:23:00.202Z,18.67
2019-05-25T19:25:27.158Z,18.63
2019-05-25T19:27:53.954Z,18.59
2019-05-25T19:30:20.934Z,18.51
2019-05-25T19:32:47.871Z,18.46
2019-05-25T19:35:14.725Z,18.42
2019-05-25T19:37:42.654Z,18.39
2019-05-25T19:40:09.779Z,18.35
2019-05-25T19:42:36.612Z,18.28
2019-05-25T19:45:03.695Z,18.24
2019-05-25T19:47:30.549Z,18.17
2019-05-25T19:49:57.376Z,18.12
2019-05-25T19:52:24.476Z,18.08
2019-05-25T19:54:51.372Z,18.02
2019-05-25T19:57:18.312Z,17.98
2019-05-25T19:59:45.169Z,17.92
2019-05-25T20:02:12.397Z,17.88
2019-05-25T20:04:39.305Z,17.84
2019-05-25T20:07:06.197Z,17.78
2019-05-25T20:09:33.522Z,17.71
2019-05-25T20:12:00.470Z,17.66
2019-05-25T20:14:27.279Z,17.59
2019-05-25T20:16:54.119Z,17.51
2019-05-25T20:19:21.040Z,17.47
2019-05-25T20:21:47.854Z,17.22
2019-05-25T20:24:14.713Z,17.35
2019-05-25T20:26:41.551Z,17.31
2019-05-25T20:29:08.423Z,17.25
2019-05-25T20:31:36.142Z,17.19
2019-05-25T20:34:03.075Z,17.16
2019-05-25T20:36:30.616Z,17.11
2019-05-25T20:38:57.410Z,17.07
2019-05-25T20:41:24.104Z,16.99
2019-05-25T20:43:50.945Z,16.94
2019-05-25T20:46:17.752Z,16.88
2019-05-25T20:48:44.639Z,16.83
2019-05-25T20:51:11.357Z,16.77
2019-05-25T20:53:38.086Z,16.75
2019-05-25T20:56:04.850Z,16.68
2019-05-25T20:58:31.720Z,16.63
2019-05-25T21:00:58.495Z,16.59
2019-05-25T21:03:25.198Z,16.56
2019-05-25T21:05:59.103Z,16.52
2019-05-25T21:08:26.118Z,16.46
2019-05-25T21:10:52.981Z,16.46
2019-05-25T21:13:19.890Z,16.43
2019-05-25T21:15:46.575Z,16.41
2019-05-25T21:18:15.981Z,16.38
2019-05-25T21:20:42.877Z,16.34
2019-05-25T21:23:11.846Z,16.31
2019-05-25T21:25:38.835Z,16.28
2019-05-25T21:28:05.718Z,16.25
2019-05-25T21:30:32.758Z,16.23
2019-05-25T21:32:59.550Z,16.20
2019-05-25T21:35:26.588Z,16.18
2019-05-25T21:37:53.616Z,16.16
2019-05-25T21:40:20.386Z,16.14
2019-05-25T21:42:47.138Z,16.13
2019-05-25T21:45:13.967Z,16.12
2019-05-25T21:47:40.629Z,16.08
2019-05-25T21:50:07.667Z,16.08
2019-05-25T21:52:34.536Z,16.05
2019-05-25T21:55:01.585Z,16.03
2019-05-25T21:57:28.332Z,15.99
2019-05-25T21:59:55.074Z,15.95
2019-05-25T22:02:22.011Z,15.92
2019-05-25T22:04:48.764Z,15.88
2019-05-25T22:07:15.605Z,15.85
2019-05-25T22:09:42.387Z,15.81
2019-05-25T22:12:09.126Z,15.76
2019-05-25T22:14:36.175Z,15.73
2019-05-25T22:17:02.997Z,15.69
2019-05-25T22:19:29.752Z,15.65
2019-05-25T22:21:56.322Z,15.66
2019-05-25T22:24:23.074Z,15.65
2019-05-25T22:26:49.751Z,15.63
2019-05-25T22:29:16.376Z,15.59
2019-05-25T22:31:43.109Z,15.59
2019-05-25T22:34:09.822Z,15.56
2019-05-25T22:36:40.789Z,15.52
2019-05-25T22:39:05.985Z,15.49
2019-05-25T22:41:32.731Z,15.49
2019-05-25T22:43:59.608Z,15.48
2019-05-25T22:46:26.245Z,15.47
2019-05-25T22:48:52.930Z,15.45
2019-05-25T22:51:19.502Z,15.41
2019-05-25T22:53:46.265Z,15.42
2019-05-25T22:56:12.994Z,15.42
2019-05-25T22:58:39.643Z,15.42
2019-05-25T23:01:06.326Z,15.41
2019-05-25T23:03:33.074Z,15.42
2019-05-25T23:05:59.719Z,15.40
2019-05-25T23:08:26.562Z,15.40
2019-05-25T23:10:53.379Z,15.39
2019-05-25T23:13:20.265Z,15.40
2019-05-25T23:15:46.808Z,15.38
2019-05-25T23:18:13.581Z,15.39
2019-05-25T23:20:40.239Z,15.37
2019-05-25T23:23:07.882Z,15.37
2019-05-25T23:25:34.704Z,15.36
2019-05-25T23:28:02.555Z,15.36
2019-05-25T23:30:29.189Z,15.37
2019-05-25T23:32:56.155Z,15.35
2019-05-25T23:35:22.886Z,15.35
2019-05-25T23:37:49.663Z,15.34
2019-05-25T23:40:16.497Z,15.33
2019-05-25T23:42:43.085Z,15.31
2019-05-25T23:45:09.992Z,15.31
2019-05-25T23:47:36.848Z,15.30
2019-05-25T23:50:04.980Z,15.31
2019-05-25T23:52:31.653Z,15.31
2019-05-25T23:54:58.399Z,15.30
2019-05-25T23:57:25.244Z,15.30
2019-05-25T23:59:52.293Z,15.28
